createdAt,value
2022-09-06T00:01:14.139Z,2.00
2022-09-06T00:03:42.765Z,1.60
2022-09-06T00:06:18.390Z,1.80
2022-09-06T00:08:48.674Z,2.30
2022-09-06T00:11:18.719Z,2.20
2022-09-06T00:13:47.972Z,1.60
2022-09-06T00:16:21.738Z,1.80
2022-09-06T00:18:54.910Z,1.70
2022-09-06T00:21:26.937Z,2.20
2022-09-06T00:23:56.034Z,2.60
2022-09-06T00:26:25.095Z,2.00
2022-09-06T00:28:53.435Z,1.60
2022-09-06T00:31:26.083Z,2.30
2022-09-06T00:33:54.617Z,2.20
2022-09-06T00:36:23.994Z,1.80
2022-09-06T00:38:52.341Z,1.90
2022-09-06T00:41:20.775Z,1.70
2022-09-06T00:43:49.083Z,2.00
2022-09-06T00:46:23.735Z,1.80
2022-09-06T00:49:00.966Z,1.60
2022-09-06T00:51:31.017Z,2.30
2022-09-06T00:54:03.860Z,2.20
2022-09-06T00:56:38.154Z,2.20
2022-09-06T00:59:07.373Z,2.10
2022-09-06T01:01:35.822Z,2.30
2022-09-06T01:04:04.626Z,2.20
2022-09-06T01:07:06.097Z,2.00
2022-09-06T01:10:14.235Z,1.70
2022-09-06T01:13:27.038Z,1.70
2022-09-06T01:16:04.615Z,1.80
2022-09-06T01:18:40.423Z,1.90
2022-09-06T01:21:14.801Z,1.70
2022-09-06T01:24:25.485Z,1.80
2022-09-06T01:27:12.974Z,1.80
2022-09-06T01:29:52.529Z,1.80
2022-09-06T01:32:41.530Z,2.20
2022-09-06T01:35:41.055Z,1.60
2022-09-06T01:38:10.358Z,1.90
2022-09-06T01:40:38.660Z,1.80
2022-09-06T01:43:13.144Z,1.80
2022-09-06T01:46:12.517Z,1.90
2022-09-06T01:49:16.353Z,2.10
2022-09-06T01:52:15.030Z,1.50
2022-09-06T01:55:16.945Z,2.00
2022-09-06T01:58:13.840Z,2.20
2022-09-06T02:01:30.583Z,1.80
2022-09-06T02:05:01.522Z,1.70
2022-09-06T02:07:33.924Z,1.80
2022-09-06T02:10:50.330Z,1.80
2022-09-06T02:13:21.714Z,1.70
2022-09-06T02:15:58.511Z,2.40
2022-09-06T02:19:00.715Z,5.20
2022-09-06T02:21:37.797Z,10.60
2022-09-06T02:24:12.183Z,7.70
2022-09-06T02:26:44.177Z,3.80
2022-09-06T02:29:13.070Z,3.70
2022-09-06T02:31:54.684Z,3.00
2022-09-06T02:34:23.175Z,4.60
2022-09-06T02:36:51.714Z,4.20
2022-09-06T02:39:20.134Z,6.50
2022-09-06T02:41:48.692Z,6.30
2022-09-06T02:44:17.001Z,9.20
2022-09-06T02:46:45.375Z,10.50
2022-09-06T02:49:13.682Z,27.50
2022-09-06T02:51:42.091Z,19.00
2022-09-06T02:54:10.555Z,19.00
2022-09-06T02:56:38.896Z,18.20
2022-09-06T02:59:07.465Z,15.60
2022-09-06T03:01:35.897Z,14.80
2022-09-06T03:04:04.441Z,12.30
2022-09-06T03:06:33.005Z,11.70
2022-09-06T03:09:01.322Z,11.40
2022-09-06T03:11:29.652Z,12.30
2022-09-06T03:13:57.947Z,9.30
2022-09-06T03:16:26.337Z,11.70
2022-09-06T03:18:54.964Z,9.60
2022-09-06T03:21:23.285Z,9.00
2022-09-06T03:23:51.598Z,9.20
2022-09-06T03:26:19.886Z,6.70
2022-09-06T03:28:48.143Z,4.40
2022-09-06T03:31:16.534Z,4.90
2022-09-06T03:33:44.900Z,3.90
2022-09-06T03:36:13.949Z,3.80
2022-09-06T03:38:42.321Z,3.60
2022-09-06T03:41:10.627Z,4.60
2022-09-06T03:43:38.901Z,4.20
2022-09-06T03:46:07.325Z,3.40
2022-09-06T03:48:35.736Z,3.60
2022-09-06T03:51:04.138Z,2.80
2022-09-06T03:53:32.465Z,2.20
2022-09-06T03:56:01.645Z,2.50
2022-09-06T03:58:32.331Z,2.30
2022-09-06T04:01:03.705Z,1.90
2022-09-06T04:03:33.578Z,1.70
2022-09-06T04:06:02.848Z,1.60
2022-09-06T04:08:32.299Z,2.40
2022-09-06T04:11:00.728Z,2.00
2022-09-06T04:13:30.188Z,2.40
2022-09-06T04:15:59.826Z,2.10
2022-09-06T04:18:28.251Z,2.50
2022-09-06T04:20:57.575Z,2.30
2022-09-06T04:23:28.321Z,4.90
2022-09-06T04:25:59.340Z,6.70
2022-09-06T04:28:28.538Z,5.40
2022-09-06T04:31:04.353Z,5.00
2022-09-06T04:33:35.681Z,5.60
2022-09-06T04:36:09.071Z,5.00
2022-09-06T04:38:42.095Z,4.80
2022-09-06T04:41:17.010Z,3.90
2022-09-06T04:43:45.518Z,2.30
2022-09-06T04:46:28.913Z,2.60
2022-09-06T04:48:58.511Z,3.10
2022-09-06T04:51:27.366Z,2.60
2022-09-06T04:53:55.735Z,2.50
2022-09-06T04:56:26.399Z,1.30
2022-09-06T04:58:55.766Z,2.20
2022-09-06T05:01:26.492Z,2.30
2022-09-06T05:03:56.961Z,1.90
2022-09-06T05:06:25.687Z,2.10
2022-09-06T05:08:54.088Z,2.30
2022-09-06T05:11:23.529Z,2.40
2022-09-06T05:13:51.883Z,2.30
2022-09-06T05:16:20.457Z,1.70
2022-09-06T05:18:48.776Z,3.00
2022-09-06T05:21:17.233Z,1.90
2022-09-06T05:23:45.611Z,2.20
2022-09-06T05:26:14.023Z,2.70
2022-09-06T05:28:42.404Z,2.30
2022-09-06T05:31:29.082Z,2.50
2022-09-06T05:33:58.807Z,2.10
2022-09-06T05:36:29.461Z,2.60
2022-09-06T05:38:58.898Z,2.00
2022-09-06T05:41:27.836Z,2.50
2022-09-06T05:43:56.453Z,1.90
2022-09-06T05:46:25.003Z,1.60
2022-09-06T05:48:55.744Z,2.10
2022-09-06T05:51:25.315Z,3.70
2022-09-06T05:53:53.631Z,1.60
2022-09-06T05:56:22.675Z,2.20
2022-09-06T05:58:51.206Z,1.90
2022-09-06T06:01:23.789Z,2.40
2022-09-06T06:03:59.645Z,2.20
2022-09-06T06:06:31.399Z,2.20
2022-09-06T06:09:00.322Z,2.00
2022-09-06T06:11:31.063Z,2.60
2022-09-06T06:13:59.739Z,2.10
2022-09-06T06:16:28.234Z,3.00
2022-09-06T06:18:57.636Z,1.90
2022-09-06T06:21:29.451Z,2.30
2022-09-06T06:24:01.384Z,2.50
2022-09-06T06:26:36.670Z,1.50
2022-09-06T06:31:38.911Z,2.20
2022-09-06T06:34:08.595Z,1.40
2022-09-06T06:36:38.520Z,2.40
2022-09-06T06:39:08.758Z,2.50
2022-09-06T06:41:37.854Z,1.80
2022-09-06T06:44:06.328Z,1.90
2022-09-06T06:46:38.235Z,2.00
2022-09-06T06:49:07.070Z,2.10
2022-09-06T06:51:39.332Z,1.90
2022-09-06T06:54:07.646Z,2.60
2022-09-06T06:56:44.917Z,2.20
2022-09-06T06:59:13.693Z,2.20
2022-09-06T07:01:42.093Z,2.00
2022-09-06T07:04:12.285Z,2.60
2022-09-06T07:12:29.707Z,2.40
2022-09-06T07:14:58.081Z,2.30
2022-09-06T07:17:26.401Z,1.90
2022-09-06T07:22:43.316Z,2.30
2022-09-06T07:25:16.562Z,2.40
2022-09-06T07:27:49.951Z,2.30
2022-09-06T07:30:20.183Z,2.20
2022-09-06T07:32:49.130Z,2.70
2022-09-06T07:35:21.858Z,1.80
2022-09-06T07:37:56.167Z,3.00
2022-09-06T07:40:30.815Z,2.40
2022-09-06T07:43:00.356Z,2.30
2022-09-06T07:45:28.680Z,3.00
2022-09-06T07:47:59.746Z,2.10
2022-09-06T07:53:24.613Z,2.20
2022-09-06T07:56:03.661Z,2.70
2022-09-06T07:58:33.868Z,2.00
2022-09-06T08:01:20.069Z,2.50
2022-09-06T08:03:48.467Z,2.40
2022-09-06T08:06:17.010Z,2.40
2022-09-06T08:09:01.181Z,2.40
2022-09-06T08:11:32.762Z,3.50
2022-09-06T08:14:03.072Z,2.70
2022-09-06T08:16:33.731Z,2.60
2022-09-06T08:19:08.547Z,2.70
2022-09-06T08:21:36.912Z,2.50
2022-09-06T08:24:09.307Z,2.50
2022-09-06T08:26:45.149Z,2.80
2022-09-06T08:29:14.154Z,2.90
2022-09-06T08:31:44.963Z,2.50
2022-09-06T08:34:15.287Z,3.50
2022-09-06T08:36:44.932Z,2.80
2022-09-06T08:39:13.330Z,2.90
2022-09-06T08:42:05.352Z,2.80
2022-09-06T08:47:22.264Z,2.60
2022-09-06T08:50:05.516Z,2.90
2022-09-06T08:53:16.612Z,3.40
2022-09-06T08:56:16.993Z,2.80
2022-09-06T08:59:04.132Z,2.70
2022-09-06T09:01:59.156Z,2.60
2022-09-06T09:04:30.670Z,3.20
2022-09-06T09:07:18.232Z,2.90
2022-09-06T09:09:46.802Z,3.00
2022-09-06T09:12:23.394Z,2.40
2022-09-06T09:15:01.991Z,3.10
2022-09-06T09:17:32.056Z,2.30
2022-09-06T09:20:00.592Z,2.80
2022-09-06T09:22:28.924Z,2.30
2022-09-06T09:25:00.680Z,3.70
2022-09-06T09:27:32.324Z,2.80
2022-09-06T09:32:54.619Z,2.60
2022-09-06T09:35:34.321Z,2.70
2022-09-06T09:38:12.190Z,2.80
2022-09-06T09:40:53.616Z,2.80
2022-09-06T09:43:29.852Z,2.50
2022-09-06T09:46:24.281Z,2.60
2022-09-06T09:51:41.552Z,3.00
2022-09-06T09:54:13.847Z,3.10
2022-09-06T09:56:53.528Z,3.00
2022-09-06T09:59:30.569Z,3.00
2022-09-06T10:02:05.865Z,2.80
2022-09-06T10:04:45.970Z,3.70
2022-09-06T10:07:23.651Z,3.40
2022-09-06T10:10:10.909Z,2.90
2022-09-06T10:12:42.365Z,2.30
2022-09-06T10:15:33.668Z,2.90
2022-09-06T10:18:02.581Z,3.10
2022-09-06T10:21:01.972Z,2.90
2022-09-06T10:26:53.372Z,2.70
2022-09-06T10:29:27.902Z,2.80
2022-09-06T10:32:31.039Z,3.80
2022-09-06T10:35:21.404Z,3.10
2022-09-06T10:38:38.635Z,2.70
2022-09-06T10:41:41.281Z,2.90
2022-09-06T10:44:31.824Z,2.60
2022-09-06T10:47:12.131Z,3.20
2022-09-06T10:49:46.318Z,2.70
2022-09-06T10:52:27.141Z,2.90
2022-09-06T10:55:02.295Z,3.00
2022-09-06T11:00:46.684Z,2.70
2022-09-06T11:04:02.128Z,2.40
2022-09-06T11:06:39.849Z,2.30
2022-09-06T11:09:29.830Z,2.40
2022-09-06T11:12:18.116Z,1.90
2022-09-06T11:14:46.554Z,2.40
2022-09-06T11:17:25.830Z,2.10
2022-09-06T11:20:27.474Z,2.40
2022-09-06T11:26:06.144Z,3.00
2022-09-06T11:28:49.393Z,2.10
2022-09-06T11:34:28.199Z,2.80
2022-09-06T11:37:09.303Z,3.00
2022-09-06T11:42:46.387Z,2.00
2022-09-06T11:46:04.001Z,2.70
2022-09-06T11:48:43.920Z,2.60
2022-09-06T11:51:46.905Z,2.70
2022-09-06T11:54:15.343Z,2.50
2022-09-06T11:56:46.692Z,2.20
2022-09-06T11:59:18.877Z,2.60
2022-09-06T12:01:56.443Z,2.40
2022-09-06T12:04:44.800Z,2.30
2022-09-06T12:07:13.438Z,2.10
2022-09-06T12:09:44.092Z,2.20
2022-09-06T12:12:44.353Z,2.50
2022-09-06T12:15:43.468Z,2.40
2022-09-06T12:18:40.854Z,3.00
2022-09-06T12:21:41.919Z,2.50
2022-09-06T12:24:35.313Z,1.80
2022-09-06T12:27:22.467Z,2.10
2022-09-06T12:30:05.229Z,2.30
2022-09-06T12:32:44.680Z,2.30
2022-09-06T12:38:25.977Z,2.80
2022-09-06T12:40:59.100Z,2.50
2022-09-06T12:43:27.630Z,2.70
2022-09-06T12:45:56.131Z,2.30
2022-09-06T12:48:35.414Z,2.00
2022-09-06T12:51:20.905Z,3.10
2022-09-06T12:54:22.098Z,2.00
2022-09-06T12:56:51.701Z,2.20
2022-09-06T12:59:27.141Z,2.30
2022-09-06T13:02:08.316Z,2.80
2022-09-06T13:05:06.255Z,2.20
2022-09-06T13:07:43.522Z,2.40
2022-09-06T13:10:18.107Z,2.10
2022-09-06T13:12:50.668Z,2.50
2022-09-06T13:15:30.969Z,2.50
2022-09-06T13:18:21.744Z,2.40
2022-09-06T13:21:05.318Z,2.40
2022-09-06T13:23:47.605Z,2.50
2022-09-06T13:26:35.656Z,1.90
2022-09-06T13:29:31.922Z,2.40
2022-09-06T13:32:04.669Z,2.60
2022-09-06T13:34:34.410Z,2.30
2022-09-06T13:37:08.662Z,2.20
2022-09-06T13:39:40.579Z,2.80
2022-09-06T13:42:23.459Z,2.40
2022-09-06T13:44:51.913Z,2.10
2022-09-06T13:47:20.318Z,2.00
2022-09-06T13:49:51.366Z,2.30
2022-09-06T13:52:19.983Z,2.40
2022-09-06T13:54:48.953Z,1.70
2022-09-06T13:57:22.184Z,2.00
2022-09-06T13:59:52.746Z,2.30
2022-09-06T14:02:21.452Z,2.90
2022-09-06T14:04:49.754Z,1.80
2022-09-06T14:07:18.257Z,2.00
2022-09-06T14:09:47.478Z,2.00
2022-09-06T14:12:15.854Z,1.90
2022-09-06T14:14:44.816Z,2.30
2022-09-06T14:17:13.204Z,2.30
2022-09-06T14:19:41.637Z,2.00
2022-09-06T14:22:09.987Z,1.80
2022-09-06T14:24:39.512Z,2.50
2022-09-06T14:27:10.460Z,2.20
2022-09-06T14:29:39.685Z,2.10
2022-09-06T14:32:08.786Z,2.70
2022-09-06T14:34:37.136Z,1.90
2022-09-06T14:37:06.364Z,2.20
2022-09-06T14:39:37.030Z,2.20
2022-09-06T14:42:05.833Z,1.60
2022-09-06T14:44:34.877Z,2.00
2022-09-06T14:47:06.475Z,1.70
2022-09-06T14:49:34.787Z,1.70
2022-09-06T14:52:03.144Z,2.20
2022-09-06T14:54:31.439Z,2.20
2022-09-06T14:57:00.118Z,2.00
2022-09-06T14:59:28.849Z,1.40
2022-09-06T15:01:57.755Z,2.20
2022-09-06T15:04:26.547Z,2.10
2022-09-06T15:06:54.890Z,2.30
2022-09-06T15:09:23.424Z,1.80
2022-09-06T15:11:52.494Z,1.80
2022-09-06T15:14:31.359Z,2.70
2022-09-06T15:17:00.352Z,1.70
2022-09-06T15:19:30.205Z,2.10
2022-09-06T15:21:59.448Z,1.30
2022-09-06T15:24:29.064Z,1.80
2022-09-06T15:26:58.567Z,1.70
2022-09-06T15:29:27.461Z,1.40
2022-09-06T15:31:56.305Z,2.10
2022-09-06T15:34:26.631Z,1.40
2022-09-06T15:37:21.614Z,2.10
2022-09-06T15:42:18.488Z,1.70
2022-09-06T15:44:46.797Z,1.90
2022-09-06T15:47:15.122Z,1.70
2022-09-06T15:49:44.058Z,2.10
2022-09-06T15:52:12.507Z,1.70
2022-09-06T15:54:59.825Z,2.00
2022-09-06T15:57:29.073Z,1.70
2022-09-06T15:59:57.414Z,1.40
2022-09-06T16:02:27.796Z,1.60
2022-09-06T16:04:56.292Z,1.80
2022-09-06T16:07:25.360Z,2.30
2022-09-06T16:09:53.749Z,1.50
2022-09-06T16:12:22.244Z,1.30
2022-09-06T16:14:50.731Z,2.10
2022-09-06T16:17:19.048Z,1.50
2022-09-06T16:19:47.434Z,1.40
2022-09-06T16:22:15.762Z,2.10
2022-09-06T16:24:44.158Z,1.60
2022-09-06T16:27:12.863Z,1.60
2022-09-06T16:29:41.368Z,2.10
2022-09-06T16:32:10.004Z,2.30
2022-09-06T16:34:39.823Z,2.70
2022-09-06T16:37:08.533Z,2.00
2022-09-06T16:39:51.608Z,2.00
2022-09-06T16:42:20.010Z,2.00
2022-09-06T16:44:48.513Z,1.90
2022-09-06T16:47:16.940Z,1.90
2022-09-06T16:49:45.402Z,1.90
2022-09-06T16:52:14.553Z,2.10
2022-09-06T16:54:42.964Z,1.90
2022-09-06T16:57:14.305Z,2.10
2022-09-06T16:59:44.210Z,2.00
2022-09-06T17:02:12.727Z,1.60
2022-09-06T17:04:41.327Z,2.30
2022-09-06T17:07:09.736Z,2.20
2022-09-06T17:09:38.243Z,2.20
2022-09-06T17:12:06.942Z,2.30
2022-09-06T17:14:40.897Z,2.50
2022-09-06T17:17:16.563Z,3.00
2022-09-06T17:19:48.078Z,3.00
2022-09-06T17:22:16.684Z,2.80
2022-09-06T17:24:45.377Z,2.20
2022-09-06T17:27:13.848Z,2.60
2022-09-06T17:29:42.320Z,2.60
2022-09-06T17:32:11.311Z,2.10
2022-09-06T17:34:41.175Z,2.40
2022-09-06T17:37:09.702Z,1.60
2022-09-06T17:39:38.647Z,1.90
2022-09-06T17:42:07.191Z,2.10
2022-09-06T17:44:36.297Z,2.30
2022-09-06T17:47:13.972Z,1.90
2022-09-06T17:49:43.312Z,2.10
2022-09-06T17:52:12.183Z,2.30
2022-09-06T17:54:40.621Z,1.60
2022-09-06T17:57:09.194Z,2.00
2022-09-06T17:59:38.631Z,2.00
2022-09-06T18:02:11.132Z,2.30
2022-09-06T18:04:39.796Z,2.00
2022-09-06T18:07:14.583Z,1.70
2022-09-06T18:09:52.880Z,2.00
2022-09-06T18:12:23.617Z,1.80
2022-09-06T18:14:52.672Z,2.10
2022-09-06T18:17:26.490Z,1.60
2022-09-06T18:19:54.763Z,1.80
2022-09-06T18:22:23.948Z,2.50
2022-09-06T18:24:57.546Z,2.20
2022-09-06T18:27:26.676Z,2.00
2022-09-06T18:29:55.922Z,2.10
2022-09-06T18:32:25.245Z,2.30
2022-09-06T18:34:53.574Z,2.10
2022-09-06T18:37:22.243Z,1.60
2022-09-06T18:39:50.796Z,1.90
2022-09-06T18:42:19.157Z,1.40
2022-09-06T18:44:48.110Z,1.60
2022-09-06T18:47:18.246Z,1.90
2022-09-06T18:49:47.160Z,1.60
2022-09-06T18:52:16.541Z,1.70
2022-09-06T18:54:45.376Z,2.50
2022-09-06T18:57:15.473Z,1.60
2022-09-06T18:59:44.668Z,1.60
2022-09-06T19:02:13.213Z,1.60
2022-09-06T19:04:41.623Z,1.60
2022-09-06T19:07:09.933Z,1.30
2022-09-06T19:09:38.422Z,1.60
2022-09-06T19:12:07.488Z,2.00
2022-09-06T19:14:35.986Z,1.80
2022-09-06T19:17:04.344Z,2.10
2022-09-06T19:19:32.753Z,1.70
2022-09-06T19:22:01.086Z,1.90
2022-09-06T19:24:29.461Z,1.50
2022-09-06T19:26:57.784Z,2.20
2022-09-06T19:29:27.621Z,1.90
2022-09-06T19:31:56.003Z,1.60
2022-09-06T19:34:24.499Z,2.40
2022-09-06T19:36:55.288Z,2.20
2022-09-06T19:39:30.253Z,2.00
2022-09-06T19:42:00.757Z,1.50
2022-09-06T19:44:29.142Z,1.90
2022-09-06T19:46:59.922Z,1.70
2022-09-06T19:49:29.551Z,1.70
2022-09-06T19:51:58.340Z,2.40
2022-09-06T19:54:27.470Z,1.50
2022-09-06T19:56:55.819Z,2.30
2022-09-06T19:59:24.217Z,2.00
2022-09-06T20:01:57.087Z,1.90
2022-09-06T20:04:28.683Z,2.80
2022-09-06T20:06:57.791Z,1.70
2022-09-06T20:09:27.253Z,1.90
2022-09-06T20:11:55.604Z,2.20
2022-09-06T20:14:26.405Z,2.30
2022-09-06T20:16:54.782Z,2.50
2022-09-06T20:19:23.163Z,1.80
2022-09-06T20:21:52.029Z,2.50
2022-09-06T20:24:20.461Z,2.00
2022-09-06T20:26:51.163Z,2.30
2022-09-06T20:29:20.059Z,2.10
2022-09-06T20:31:48.524Z,2.20
2022-09-06T20:34:18.667Z,2.30
2022-09-06T20:36:47.370Z,2.70
2022-09-06T20:39:15.987Z,2.40
2022-09-06T20:41:44.351Z,1.90
2022-09-06T20:44:12.698Z,2.50
2022-09-06T20:46:41.171Z,2.40
2022-09-06T20:49:09.610Z,1.50
2022-09-06T20:51:40.468Z,2.10
2022-09-06T20:54:10.454Z,1.60
2022-09-06T20:56:41.297Z,2.20
2022-09-06T20:59:13.234Z,1.80
2022-09-06T21:01:45.905Z,1.80
2022-09-06T21:04:16.699Z,2.20
2022-09-06T21:06:46.609Z,2.50
2022-09-06T21:09:15.538Z,2.10
2022-09-06T21:11:45.397Z,2.00
2022-09-06T21:14:13.993Z,2.20
2022-09-06T21:16:42.512Z,2.40
2022-09-06T21:19:12.806Z,2.00
2022-09-06T21:21:41.773Z,2.30
2022-09-06T21:24:10.978Z,1.80
2022-09-06T21:26:42.891Z,2.60
2022-09-06T21:29:11.848Z,1.80
2022-09-06T21:31:40.292Z,1.80
2022-09-06T21:34:16.369Z,2.10
2022-09-06T21:36:45.937Z,2.50
2022-09-06T21:39:14.926Z,2.20
2022-09-06T21:41:44.265Z,1.80
2022-09-06T21:44:13.077Z,2.10
2022-09-06T21:46:42.259Z,1.70
2022-09-06T21:49:13.408Z,1.60
2022-09-06T21:51:42.894Z,2.00
2022-09-06T21:54:11.529Z,2.00
2022-09-06T21:56:40.732Z,2.60
2022-09-06T21:59:11.105Z,2.20
2022-09-06T22:01:43.136Z,2.10
2022-09-06T22:04:14.253Z,1.70
2022-09-06T22:06:42.686Z,2.30
2022-09-06T22:09:12.954Z,2.10
2022-09-06T22:11:44.230Z,2.00
2022-09-06T22:14:15.240Z,2.60
2022-09-06T22:16:43.967Z,2.60
2022-09-06T22:19:12.611Z,2.20
2022-09-06T22:21:41.022Z,1.90
2022-09-06T22:24:11.831Z,1.80
2022-09-06T22:26:41.860Z,1.90
2022-09-06T22:29:13.734Z,1.80
2022-09-06T22:31:42.792Z,2.50
2022-09-06T22:34:11.397Z,2.30
2022-09-06T22:36:39.823Z,2.40
2022-09-06T22:39:09.686Z,2.30
2022-09-06T22:41:38.454Z,2.40
2022-09-06T22:44:07.379Z,2.60
2022-09-06T22:46:36.517Z,3.30
2022-09-06T22:49:05.625Z,3.70
2022-09-06T22:51:33.975Z,2.90
2022-09-06T22:54:02.873Z,3.60
2022-09-06T22:56:32.034Z,3.30
2022-09-06T22:59:00.753Z,3.30
2022-09-06T23:01:29.765Z,3.50
2022-09-06T23:03:59.225Z,3.70
2022-09-06T23:06:28.200Z,3.60
2022-09-06T23:08:56.574Z,3.60
2022-09-06T23:11:24.989Z,3.30
2022-09-06T23:13:57.909Z,3.70
2022-09-06T23:16:28.244Z,3.20
2022-09-06T23:18:56.840Z,3.40
2022-09-06T23:21:26.446Z,3.60
2022-09-06T23:23:57.322Z,3.70
2022-09-06T23:26:29.695Z,4.00
2022-09-06T23:28:58.653Z,3.00
2022-09-06T23:31:32.622Z,3.40
2022-09-06T23:34:03.008Z,3.10
2022-09-06T23:36:32.701Z,3.60
2022-09-06T23:39:02.381Z,3.30
2022-09-06T23:41:31.056Z,3.20
2022-09-06T23:43:59.690Z,3.60
2022-09-06T23:46:28.188Z,2.70
2022-09-06T23:48:56.695Z,2.90
2022-09-06T23:51:25.139Z,3.00
2022-09-06T23:53:53.446Z,3.00
2022-09-06T23:56:22.466Z,2.60
2022-09-06T23:58:50.757Z,3.50
